»·PEaware :: N129DQ KEUG-KPDX

N129DQ :: KEUG-KPDX

FLIGHT INFORMATION

Flight Status: Arrived
Operator: Privately registered:
United States
More flights under this callsign
Pilot: Doug M. (13043)
Aircraft: MOONEY M-20K/M ENCORE BRAVO
(M20T)
More flights by this aircraft type
Origin: KEUG Mahlon Sweet
United States
Destination: KPDX Portland Intl
United States
More flights between these airports :: More routes between these airports
Route: CVO V495 UBG
File this flight plan on PilotEdge
Remarks:
Altitude:
(Current/Filed)
6,000ft
Speed:
(Current/Filed)
180kts
Departed: 02-Sep-18 05:59 PM
Arrived: 02-Sep-18 06:36 PM
Distance/Time
Traveled:
91nm/0:37
Distance/Time
To Go:
Arrived

Flight Plot

Page will automatically refresh every two minutes.

Flight plan parsing failed; only flown route is shown


Map Options




Map Legend


Flown Route
Filed Route
Departure Airport
Arrival Airport
Navaid (VOR, NDB)
Fix

Horizontal Profiles

Position Reports

Time Latitude Longitude Heading Altitude Ground
Speed
02-Sep-18 17:49 44.121256 -123.213036 209 362ft 0kts
02-Sep-18 17:50 44.121256 -123.213036 209 362ft 0kts
02-Sep-18 17:51 44.121256 -123.213036 209 362ft 0kts
02-Sep-18 17:52 44.121256 -123.213036 209 362ft 0kts
02-Sep-18 17:53 44.121256 -123.213036 209 362ft 0kts
02-Sep-18 17:54 44.121256 -123.213036 209 362ft 0kts
02-Sep-18 17:55 44.121256 -123.213036 209 362ft 0kts
02-Sep-18 17:56 44.121256 -123.213036 209 362ft 0kts
02-Sep-18 17:57 44.120967 -123.213013 91 362ft 11kts
02-Sep-18 17:58 44.117518 -123.216790 199 362ft 20kts
02-Sep-18 17:59 44.113636 -123.217496 288 362ft 0kts
02-Sep-18 18:00 44.113636 -123.217496 288 362ft 0kts
02-Sep-18 18:01 44.122609 -123.218994 359 371ft 100kts
02-Sep-18 18:02 44.155346 -123.222080 357 1342ft 130kts
02-Sep-18 18:03 44.193779 -123.225598 357 2359ft 145kts
02-Sep-18 18:04 44.234881 -123.229065 357 3366ft 152kts
02-Sep-18 18:05 44.277508 -123.233006 357 4376ft 155kts
02-Sep-18 18:06 44.320330 -123.243033 349 5381ft 158kts
02-Sep-18 18:07 44.355708 -123.253175 349 5992ft 170kts
02-Sep-18 18:08 44.406174 -123.267443 349 5998ft 193kts
02-Sep-18 18:09 44.457227 -123.281901 349 5997ft 179kts
02-Sep-18 18:10 44.503794 -123.291358 11 6001ft 168kts
02-Sep-18 18:11 44.549934 -123.275471 14 6003ft 173kts
02-Sep-18 18:12 44.596645 -123.258539 14 6002ft 173kts
02-Sep-18 18:13 44.642971 -123.241624 14 5998ft 173kts
02-Sep-18 18:14 44.689454 -123.224606 14 5998ft 173kts
02-Sep-18 18:15 44.735682 -123.207658 14 5996ft 174kts
02-Sep-18 18:16 44.782493 -123.190459 14 6003ft 174kts
02-Sep-18 18:17 44.829466 -123.173167 15 6001ft 175kts
02-Sep-18 18:18 44.876712 -123.155752 15 6000ft 176kts
02-Sep-18 18:19 44.924119 -123.138258 15 5999ft 176kts
02-Sep-18 18:20 44.971513 -123.120723 14 5999ft 176kts
02-Sep-18 18:21 45.018825 -123.103185 14 6001ft 176kts
02-Sep-18 18:22 45.066086 -123.085673 13 6004ft 175kts
02-Sep-18 18:23 45.112367 -123.068479 13 6010ft 173kts
02-Sep-18 18:24 45.158671 -123.051228 12 5994ft 173kts
02-Sep-18 18:24 45.197298 -123.036810 12 5994ft 173kts
02-Sep-18 18:26 45.251481 -123.016429 12 5995ft 173kts
02-Sep-18 18:27 45.297912 -122.999043 12 5996ft 173kts
02-Sep-18 18:28 45.343171 -122.982075 11 5997ft 173kts
02-Sep-18 18:28 45.373974 -122.944739 43 5662ft 179kts
02-Sep-18 18:30 45.412658 -122.883986 43 4290ft 176kts
02-Sep-18 18:30 45.439970 -122.841718 43 3368ft 175kts
02-Sep-18 18:31 45.471736 -122.793208 43 2999ft 160kts
02-Sep-18 18:33 45.492140 -122.728656 97 2999ft 176kts
02-Sep-18 18:33 45.500888 -122.673479 71 3001ft 176kts
02-Sep-18 18:34 45.517239 -122.612103 47 3000ft 184kts
02-Sep-18 18:35 45.551924 -122.564975 31 2041ft 151kts
02-Sep-18 18:36 45.576280 -122.573466 295 327ft 93kts
02-Sep-18 18:37 45.583207 -122.591025 300 19ft 16kts
02-Sep-18 18:38 45.581429 -122.593156 185 19ft 17kts

Navigation Log

Ident Type
Flight plan parsing failed, navigation log unavailable